sensor_id;sensor_type;location;lat;lon;timestamp;pressure;altitude;pressure_sealevel;temperature;humidity
10806;BME280;5455;53.224;6.000;2023-04-28T00:01:44;101671.69;;;6.27;100.00
10806;BME280;5455;53.224;6.000;2023-04-28T00:04:11;101663.47;;;6.27;100.00
10806;BME280;5455;53.224;6.000;2023-04-28T00:06:39;101667.53;;;6.29;100.00
10806;BME280;5455;53.224;6.000;2023-04-28T00:09:07;101652.91;;;6.34;100.00
10806;BME280;5455;53.224;6.000;2023-04-28T00:11:37;101652.59;;;6.35;100.00
10806;BME280;5455;53.224;6.000;2023-04-28T00:14:04;101643.06;;;6.33;100.00
10806;BME280;5455;53.224;6.000;2023-04-28T00:16:32;101636.97;;;6.36;100.00
10806;BME280;5455;53.224;6.000;2023-04-28T00:18:59;101639.38;;;6.37;100.00
10806;BME280;5455;53.224;6.000;2023-04-28T00:21:26;101643.25;;;6.36;100.00
10806;BME280;5455;53.224;6.000;2023-04-28T00:23:55;101626.22;;;6.39;100.00
10806;BME280;5455;53.224;6.000;2023-04-28T00:26:22;101636.53;;;6.42;100.00
10806;BME280;5455;53.224;6.000;2023-04-28T00:28:49;101634.44;;;6.39;100.00
10806;BME280;5455;53.224;6.000;2023-04-28T00:31:16;101632.50;;;6.40;100.00
10806;BME280;5455;53.224;6.000;2023-04-28T00:33:44;101615.44;;;6.43;100.00
10806;BME280;5455;53.224;6.000;2023-04-28T00:36:11;101611.56;;;6.44;100.00
10806;BME280;5455;53.224;6.000;2023-04-28T00:38:38;101603.66;;;6.42;100.00
10806;BME280;5455;53.224;6.000;2023-04-28T00:41:09;101608.53;;;6.45;100.00
10806;BME280;5455;53.224;6.000;2023-04-28T00:43:47;101615.13;;;6.44;100.00
10806;BME280;5455;53.224;6.000;2023-04-28T00:46:23;101607.72;;;6.45;100.00
10806;BME280;5455;53.224;6.000;2023-04-28T00:48:51;101602.53;;;6.43;100.00
10806;BME280;5455;53.224;6.000;2023-04-28T00:51:18;101597.38;;;6.42;100.00
10806;BME280;5455;53.224;6.000;2023-04-28T00:53:45;101600.13;;;6.42;100.00
10806;BME280;5455;53.224;6.000;2023-04-28T00:56:13;101597.69;;;6.40;100.00
10806;BME280;5455;53.224;6.000;2023-04-28T00:58:41;101592.81;;;6.37;100.00
10806;BME280;5455;53.224;6.000;2023-04-28T01:01:09;101588.78;;;6.35;100.00
10806;BME280;5455;53.224;6.000;2023-04-28T01:03:39;101585.84;;;6.31;100.00
10806;BME280;5455;53.224;6.000;2023-04-28T01:06:08;101575.72;;;6.32;100.00
10806;BME280;5455;53.224;6.000;2023-04-28T01:08:37;101572.78;;;6.28;100.00
10806;BME280;5455;53.224;6.000;2023-04-28T01:11:09;101576.53;;;6.32;100.00
10806;BME280;5455;53.224;6.000;2023-04-28T01:13:58;101563.78;;;6.28;100.00
10806;BME280;5455;53.224;6.000;2023-04-28T01:16:29;101556.19;;;6.25;100.00
10806;BME280;5455;53.224;6.000;2023-04-28T01:18:59;101549.41;;;6.22;100.00
10806;BME280;5455;53.224;6.000;2023-04-28T01:21:30;101537.47;;;6.18;100.00
10806;BME280;5455;53.224;6.000;2023-04-28T01:24:14;101530.84;;;6.19;100.00
10806;BME280;5455;53.224;6.000;2023-04-28T01:26:42;101531.38;;;6.21;100.00
10806;BME280;5455;53.224;6.000;2023-04-28T01:29:10;101536.66;;;6.18;100.00
10806;BME280;5455;53.224;6.000;2023-04-28T01:31:37;101530.84;;;6.19;100.00
10806;BME280;5455;53.224;6.000;2023-04-28T01:34:05;101539.41;;;6.18;100.00
10806;BME280;5455;53.224;6.000;2023-04-28T01:36:34;101539.41;;;6.18;100.00
10806;BME280;5455;53.224;6.000;2023-04-28T01:39:04;101527.50;;;6.22;100.00
10806;BME280;5455;53.224;6.000;2023-04-28T01:41:31;101518.50;;;6.22;100.00
10806;BME280;5455;53.224;6.000;2023-04-28T01:44:00;101521.72;;;6.24;100.00
10806;BME280;5455;53.224;6.000;2023-04-28T01:46:28;101524.00;;;6.30;100.00
10806;BME280;5455;53.224;6.000;2023-04-28T01:48:56;101515.91;;;6.25;100.00
10806;BME280;5455;53.224;6.000;2023-04-28T01:51:24;101520.59;;;6.25;100.00
10806;BME280;5455;53.224;6.000;2023-04-28T01:53:53;101508.31;;;6.22;100.00
10806;BME280;5455;53.224;6.000;2023-04-28T01:56:20;101496.69;;;6.17;100.00
10806;BME280;5455;53.224;6.000;2023-04-28T01:58:48;101502.97;;;6.17;100.00
10806;BME280;5455;53.224;6.000;2023-04-28T02:01:16;101502.50;;;6.15;100.00
10806;BME280;5455;53.224;6.000;2023-04-28T02:03:43;101496.03;;;6.11;100.00
10806;BME280;5455;53.224;6.000;2023-04-28T02:06:10;101494.09;;;6.12;100.00
10806;BME280;5455;53.224;6.000;2023-04-28T02:08:37;101487.94;;;6.06;100.00
10806;BME280;5455;53.224;6.000;2023-04-28T02:11:04;101486.03;;;6.06;100.00
10806;BME280;5455;53.224;6.000;2023-04-28T02:13:31;101482.78;;;6.04;100.00
10806;BME280;5455;53.224;6.000;2023-04-28T02:16:00;101475.69;;;6.03;100.00
10806;BME280;5455;53.224;6.000;2023-04-28T02:18:28;101471.00;;;6.04;100.00
10806;BME280;5455;53.224;6.000;2023-04-28T02:21:07;101470.38;;;6.07;100.00
10806;BME280;5455;53.224;6.000;2023-04-28T02:23:35;101468.97;;;6.09;100.00
10806;BME280;5455;53.224;6.000;2023-04-28T02:26:04;101468.16;;;6.09;100.00
10806;BME280;5455;53.224;6.000;2023-04-28T02:28:31;101457.84;;;6.06;100.00
10806;BME280;5455;53.224;6.000;2023-04-28T02:31:11;101455.28;;;6.09;100.00
10806;BME280;5455;53.224;6.000;2023-04-28T02:33:40;101450.31;;;6.12;100.00
10806;BME280;5455;53.224;6.000;2023-04-28T02:36:08;101449.66;;;6.15;100.00
10806;BME280;5455;53.224;6.000;2023-04-28T02:38:36;101441.13;;;6.16;100.00
10806;BME280;5455;53.224;6.000;2023-04-28T02:41:05;101451.44;;;6.19;100.00
10806;BME280;5455;53.224;6.000;2023-04-28T02:43:36;101430.19;;;6.16;100.00
10806;BME280;5455;53.224;6.000;2023-04-28T02:46:03;101432.78;;;6.21;100.00
10806;BME280;5455;53.224;6.000;2023-04-28T02:48:31;101426.50;;;6.21;100.00
10806;BME280;5455;53.224;6.000;2023-04-28T02:51:01;101427.81;;;6.23;100.00
10806;BME280;5455;53.224;6.000;2023-04-28T02:53:29;101417.34;;;6.25;100.00
10806;BME280;5455;53.224;6.000;2023-04-28T02:55:56;101426.06;;;6.27;100.00
10806;BME280;5455;53.224;6.000;2023-04-28T02:58:24;101417.50;;;6.29;100.00
10806;BME280;5455;53.224;6.000;2023-04-28T03:00:51;101414.31;;;6.35;100.00
10806;BME280;5455;53.224;6.000;2023-04-28T03:03:18;101410.13;;;6.38;100.00
10806;BME280;5455;53.224;6.000;2023-04-28T03:05:46;101412.56;;;6.39;100.00
10806;BME280;5455;53.224;6.000;2023-04-28T03:08:15;101413.06;;;6.41;100.00
10806;BME280;5455;53.224;6.000;2023-04-28T03:10:42;101402.56;;;6.43;100.00
10806;BME280;5455;53.224;6.000;2023-04-28T03:13:10;101402.91;;;6.42;100.00
10806;BME280;5455;53.224;6.000;2023-04-28T03:15:37;101393.88;;;6.41;100.00
10806;BME280;5455;53.224;6.000;2023-04-28T03:18:05;101396.97;;;6.40;100.00
10806;BME280;5455;53.224;6.000;2023-04-28T03:20:32;101403.53;;;6.39;100.00
10806;BME280;5455;53.224;6.000;2023-04-28T03:22:59;101391.59;;;6.35;100.00
10806;BME280;5455;53.224;6.000;2023-04-28T03:25:28;101395.63;;;6.37;100.00
10806;BME280;5455;53.224;6.000;2023-04-28T03:27:56;101378.56;;;6.40;100.00
10806;BME280;5455;53.224;6.000;2023-04-28T03:30:24;101378.56;;;6.40;100.00
10806;BME280;5455;53.224;6.000;2023-04-28T03:32:51;101374.22;;;6.39;100.00
10806;BME280;5455;53.224;6.000;2023-04-28T03:35:19;101373.59;;;6.42;100.00
10806;BME280;5455;53.224;6.000;2023-04-28T03:37:46;101366.81;;;6.40;100.00
10806;BME280;5455;53.224;6.000;2023-04-28T03:40:14;101359.41;;;6.40;100.00
10806;BME280;5455;53.224;6.000;2023-04-28T03:43:00;101361.00;;;6.41;100.00
10806;BME280;5455;53.224;6.000;2023-04-28T03:45:35;101362.00;;;6.45;100.00
10806;BME280;5455;53.224;6.000;2023-04-28T03:48:02;101345.88;;;6.44;100.00
10806;BME280;5455;53.224;6.000;2023-04-28T03:50:30;101352.81;;;6.50;100.00
10806;BME280;5455;53.224;6.000;2023-04-28T03:52:57;101341.03;;;6.49;100.00
10806;BME280;5455;53.224;6.000;2023-04-28T03:55:26;101335.75;;;6.53;100.00
10806;BME280;5455;53.224;6.000;2023-04-28T03:57:53;101332.19;;;6.52;100.00
10806;BME280;5455;53.224;6.000;2023-04-28T04:00:20;101334.94;;;6.52;100.00
10806;BME280;5455;53.224;6.000;2023-04-28T04:02:51;101336.38;;;6.58;100.00
10806;BME280;5455;53.224;6.000;2023-04-28T04:05:18;101331.09;;;6.62;100.00
10806;BME280;5455;53.224;6.000;2023-04-28T04:07:46;101328.50;;;6.65;100.00
10806;BME280;5455;53.224;6.000;2023-04-28T04:10:13;101333.66;;;6.67;100.00
10806;BME280;5455;53.224;6.000;2023-04-28T04:12:43;101328.50;;;6.65;100.00
10806;BME280;5455;53.224;6.000;2023-04-28T04:15:10;101324.31;;;6.68;100.00
10806;BME280;5455;53.224;6.000;2023-04-28T04:17:39;101332.88;;;6.75;100.00
10806;BME280;5455;53.224;6.000;2023-04-28T04:20:06;101325.78;;;6.74;100.00
10806;BME280;5455;53.224;6.000;2023-04-28T04:22:34;101322.56;;;6.72;100.00
10806;BME280;5455;53.224;6.000;2023-04-28T04:25:01;101320.28;;;6.74;100.00
10806;BME280;5455;53.224;6.000;2023-04-28T04:27:29;101308.34;;;6.70;100.00
10806;BME280;5455;53.224;6.000;2023-04-28T04:29:56;101312.41;;;6.73;100.00
10806;BME280;5455;53.224;6.000;2023-04-28T04:32:25;101308.69;;;6.77;100.00
10806;BME280;5455;53.224;6.000;2023-04-28T04:34:53;101296.44;;;6.75;100.00
10806;BME280;5455;53.224;6.000;2023-04-28T04:37:20;101280.00;;;6.75;100.00
10806;BME280;5455;53.224;6.000;2023-04-28T04:39:56;101279.53;;;6.73;100.00
10806;BME280;5455;53.224;6.000;2023-04-28T04:42:24;101272.44;;;6.72;100.00
10806;BME280;5455;53.224;6.000;2023-04-28T04:45:21;101280.47;;;6.77;100.00
10806;BME280;5455;53.224;6.000;2023-04-28T04:47:51;101288.88;;;6.80;100.00
10806;BME280;5455;53.224;6.000;2023-04-28T04:50:18;101287.91;;;6.85;100.00
10806;BME280;5455;53.224;6.000;2023-04-28T04:52:45;101278.53;;;6.86;100.00
10806;BME280;5455;53.224;6.000;2023-04-28T04:55:13;101282.25;;;6.90;100.00
10806;BME280;5455;53.224;6.000;2023-04-28T04:57:41;101276.44;;;6.91;100.00
10806;BME280;5455;53.224;6.000;2023-04-28T05:00:16;101282.09;;;6.95;100.00
10806;BME280;5455;53.224;6.000;2023-04-28T05:02:44;101279.34;;;6.95;100.00
10806;BME280;5455;53.224;6.000;2023-04-28T05:05:13;101269.66;;;6.97;100.00
10806;BME280;5455;53.224;6.000;2023-04-28T05:08:03;101273.84;;;7.03;100.00
10806;BME280;5455;53.224;6.000;2023-04-28T05:10:32;101258.38;;;7.07;100.00
10806;BME280;5455;53.224;6.000;2023-04-28T05:13:01;101252.38;;;7.14;100.00
10806;BME280;5455;53.224;6.000;2023-04-28T05:15:28;101259.31;;;7.20;100.00
10806;BME280;5455;53.224;6.000;2023-04-28T05:18:14;101264.47;;;7.21;100.00
10806;BME280;5455;53.224;6.000;2023-04-28T05:20:41;101273.31;;;7.27;100.00
10806;BME280;5455;53.224;6.000;2023-04-28T05:23:10;101277.19;;;7.35;100.00
10806;BME280;5455;53.224;6.000;2023-04-28T05:25:37;101273.94;;;7.41;100.00
10806;BME280;5455;53.224;6.000;2023-04-28T05:28:08;101276.03;;;7.44;100.00
10806;BME280;5455;53.224;6.000;2023-04-28T05:30:35;101272.47;;;7.44;100.00
10806;BME280;5455;53.224;6.000;2023-04-28T05:33:02;101266.50;;;7.50;100.00
10806;BME280;5455;53.224;6.000;2023-04-28T05:35:30;101260.81;;;7.55;100.00
10806;BME280;5455;53.224;6.000;2023-04-28T05:37:57;101263.06;;;7.62;100.00
10806;BME280;5455;53.224;6.000;2023-04-28T05:40:25;101257.22;;;7.63;100.00
10806;BME280;5455;53.224;6.000;2023-04-28T05:42:54;101252.50;;;7.72;100.00
10806;BME280;5455;53.224;6.000;2023-04-28T05:45:22;101255.34;;;7.85;100.00
10806;BME280;5455;53.224;6.000;2023-04-28T05:47:49;101264.53;;;7.89;100.00
10806;BME280;5455;53.224;6.000;2023-04-28T05:50:17;101248.72;;;7.86;100.00
10806;BME280;5455;53.224;6.000;2023-04-28T05:52:44;101253.00;;;8.04;100.00
10806;BME280;5455;53.224;6.000;2023-04-28T05:55:11;101242.81;;;8.04;100.00
10806;BME280;5455;53.224;6.000;2023-04-28T05:57:38;101228.28;;;8.04;100.00
10806;BME280;5455;53.224;6.000;2023-04-28T06:00:18;101226.81;;;8.06;100.00
10806;BME280;5455;53.224;6.000;2023-04-28T06:02:46;101218.44;;;8.03;100.00
10806;BME280;5455;53.224;6.000;2023-04-28T06:05:13;101226.50;;;8.08;100.00
10806;BME280;5455;53.224;6.000;2023-04-28T06:07:42;101235.28;;;8.22;100.00
10806;BME280;5455;53.224;6.000;2023-04-28T06:10:09;101229.28;;;8.28;100.00
10806;BME280;5455;53.224;6.000;2023-04-28T06:12:37;101234.72;;;8.37;100.00
10806;BME280;5455;53.224;6.000;2023-04-28T06:15:05;101219.25;;;8.24;100.00
10806;BME280;5455;53.224;6.000;2023-04-28T06:17:32;101236.72;;;8.28;100.00
10806;BME280;5455;53.224;6.000;2023-04-28T06:20:00;101228.63;;;8.32;100.00
10806;BME280;5455;53.224;6.000;2023-04-28T06:22:27;101232.78;;;8.38;100.00
10806;BME280;5455;53.224;6.000;2023-04-28T06:24:54;101241.72;;;8.26;100.00
10806;BME280;5455;53.224;6.000;2023-04-28T06:27:29;101229.03;;;8.13;100.00
10806;BME280;5455;53.224;6.000;2023-04-28T06:29:58;101220.72;;;8.21;100.00
10806;BME280;5455;53.224;6.000;2023-04-28T06:32:26;101226.19;;;8.30;100.00
10806;BME280;5455;53.224;6.000;2023-04-28T06:34:54;101220.16;;;8.37;100.00
10806;BME280;5455;53.224;6.000;2023-04-28T06:37:25;101220.03;;;8.33;100.00
10806;BME280;5455;53.224;6.000;2023-04-28T06:39:52;101215.13;;;8.39;100.00
10806;BME280;5455;53.224;6.000;2023-04-28T06:42:19;101216.75;;;8.40;100.00
10806;BME280;5455;53.224;6.000;2023-04-28T06:45:07;101214.94;;;8.44;100.00
10806;BME280;5455;53.224;6.000;2023-04-28T06:47:36;101223.84;;;8.61;100.00
10806;BME280;5455;53.224;6.000;2023-04-28T06:50:07;101220.16;;;8.57;100.00
10806;BME280;5455;53.224;6.000;2023-04-28T06:52:35;101225.88;;;8.52;100.00
10806;BME280;5455;53.224;6.000;2023-04-28T06:55:08;101227.00;;;8.51;100.00
10806;BME280;5455;53.224;6.000;2023-04-28T06:57:36;101222.84;;;8.45;100.00
10806;BME280;5455;53.224;6.000;2023-04-28T07:00:09;101219.97;;;8.42;100.00
10806;BME280;5455;53.224;6.000;2023-04-28T07:02:36;101213.66;;;8.41;100.00
10806;BME280;5455;53.224;6.000;2023-04-28T07:05:04;101214.81;;;8.40;100.00
10806;BME280;5455;53.224;6.000;2023-04-28T07:07:31;101210.72;;;8.46;100.00
10806;BME280;5455;53.224;6.000;2023-04-28T07:09:59;101202.66;;;8.41;100.00
10806;BME280;5455;53.224;6.000;2023-04-28T07:12:26;101211.63;;;8.50;100.00
10806;BME280;5455;53.224;6.000;2023-04-28T07:14:54;101210.97;;;8.53;100.00
10806;BME280;5455;53.224;6.000;2023-04-28T07:17:21;101208.63;;;8.64;100.00
10806;BME280;5455;53.224;6.000;2023-04-28T07:19:49;101202.44;;;8.67;100.00
10806;BME280;5455;53.224;6.000;2023-04-28T07:22:16;101200.91;;;8.57;100.00
10806;BME280;5455;53.224;6.000;2023-04-28T07:24:44;101205.28;;;8.58;100.00
10806;BME280;5455;53.224;6.000;2023-04-28T07:27:11;101201.28;;;8.56;100.00
10806;BME280;5455;53.224;6.000;2023-04-28T07:29:38;101199.66;;;8.55;100.00
10806;BME280;5455;53.224;6.000;2023-04-28T07:32:05;101201.88;;;8.61;100.00
10806;BME280;5455;53.224;6.000;2023-04-28T07:34:35;101205.34;;;8.70;100.00
10806;BME280;5455;53.224;6.000;2023-04-28T07:37:03;101208.09;;;8.70;100.00
10806;BME280;5455;53.224;6.000;2023-04-28T07:39:32;101204.06;;;8.68;100.00
10806;BME280;5455;53.224;6.000;2023-04-28T07:42:02;101214.19;;;8.55;100.00
10806;BME280;5455;53.224;6.000;2023-04-28T07:44:30;101202.41;;;8.55;100.00
10806;BME280;5455;53.224;6.000;2023-04-28T07:46:59;101206.81;;;8.47;100.00
10806;BME280;5455;53.224;6.000;2023-04-28T07:49:29;101210.78;;;8.58;100.00
10806;BME280;5455;53.224;6.000;2023-04-28T07:51:57;101198.00;;;8.74;100.00
10806;BME280;5455;53.224;6.000;2023-04-28T07:54:24;101201.06;;;8.94;100.00
10806;BME280;5455;53.224;6.000;2023-04-28T07:56:51;101210.94;;;8.95;100.00
10806;BME280;5455;53.224;6.000;2023-04-28T07:59:18;101206.25;;;8.74;100.00
10806;BME280;5455;53.224;6.000;2023-04-28T08:01:46;101204.06;;;8.68;100.00
10806;BME280;5455;53.224;6.000;2023-04-28T08:04:13;101207.81;;;8.63;100.00
10806;BME280;5455;53.224;6.000;2023-04-28T08:06:41;101205.28;;;8.58;100.00
10806;BME280;5455;53.224;6.000;2023-04-28T08:09:08;101200.97;;;8.69;100.00
10806;BME280;5455;53.224;6.000;2023-04-28T08:11:35;101193.91;;;8.80;100.00
10806;BME280;5455;53.224;6.000;2023-04-28T08:14:02;101185.63;;;9.13;100.00
10806;BME280;5455;53.224;6.000;2023-04-28T08:16:30;101195.09;;;9.49;100.00
10806;BME280;5455;53.224;6.000;2023-04-28T08:18:57;101195.78;;;9.94;100.00
10806;BME280;5455;53.224;6.000;2023-04-28T08:21:26;101193.72;;;9.79;100.00
10806;BME280;5455;53.224;6.000;2023-04-28T08:23:53;101188.31;;;9.70;100.00
10806;BME280;5455;53.224;6.000;2023-04-28T08:26:20;101183.28;;;9.60;100.00
10806;BME280;5455;53.224;6.000;2023-04-28T08:28:47;101181.78;;;9.63;100.00
10806;BME280;5455;53.224;6.000;2023-04-28T08:31:20;101166.31;;;9.58;100.00
10806;BME280;5455;53.224;6.000;2023-04-28T08:33:47;101160.91;;;9.62;100.00
10806;BME280;5455;53.224;6.000;2023-04-28T08:36:16;101156.44;;;9.69;100.00
10806;BME280;5455;53.224;6.000;2023-04-28T08:38:44;101166.06;;;9.87;100.00
10806;BME280;5455;53.224;6.000;2023-04-28T08:41:15;101168.00;;;9.87;100.00
10806;BME280;5455;53.224;6.000;2023-04-28T08:43:42;101174.31;;;9.75;100.00
10806;BME280;5455;53.224;6.000;2023-04-28T08:46:10;101163.63;;;9.86;100.00
10806;BME280;5455;53.224;6.000;2023-04-28T08:48:43;101171.66;;;10.03;100.00
10806;BME280;5455;53.224;6.000;2023-04-28T08:51:15;101171.75;;;10.07;100.00
10806;BME280;5455;53.224;6.000;2023-04-28T08:53:53;101172.06;;;10.29;100.00
10806;BME280;5455;53.224;6.000;2023-04-28T08:56:23;101170.94;;;10.30;100.00
10806;BME280;5455;53.224;6.000;2023-04-28T08:58:53;101164.63;;;10.30;100.00
10806;BME280;5455;53.224;6.000;2023-04-28T09:01:21;101165.06;;;10.32;100.00
10806;BME280;5455;53.224;6.000;2023-04-28T09:03:49;101166.75;;;10.36;100.00
10806;BME280;5455;53.224;6.000;2023-04-28T09:06:17;101155.72;;;10.36;100.00
10806;BME280;5455;53.224;6.000;2023-04-28T09:08:45;101143.31;;;10.42;100.00
10806;BME280;5455;53.224;6.000;2023-04-28T09:11:12;101127.13;;;10.69;100.00
10806;BME280;5455;53.224;6.000;2023-04-28T09:13:40;101123.41;;;10.92;100.00
10806;BME280;5455;53.224;6.000;2023-04-28T09:16:07;101119.16;;;11.26;100.00
10806;BME280;5455;53.224;6.000;2023-04-28T09:18:35;101107.94;;;11.35;100.00
10806;BME280;5455;53.224;6.000;2023-04-28T09:21:09;101110.09;;;11.60;100.00
10806;BME280;5455;53.224;6.000;2023-04-28T09:23:46;101116.88;;;11.63;100.00
10806;BME280;5455;53.224;6.000;2023-04-28T09:26:15;101112.66;;;11.85;100.00
10806;BME280;5455;53.224;6.000;2023-04-28T09:28:42;101107.44;;;11.64;100.00
10806;BME280;5455;53.224;6.000;2023-04-28T09:31:24;101109.66;;;11.74;100.00
10806;BME280;5455;53.224;6.000;2023-04-28T09:34:00;101101.44;;;12.12;100.00
10806;BME280;5455;53.224;6.000;2023-04-28T09:36:28;101097.63;;;12.21;100.00
10806;BME280;5455;53.224;6.000;2023-04-28T09:38:57;101099.66;;;12.24;100.00
10806;BME280;5455;53.224;6.000;2023-04-28T09:41:42;101099.63;;;12.62;100.00
10806;BME280;5455;53.224;6.000;2023-04-28T09:46:38;101092.28;;;12.92;100.00
10806;BME280;5455;53.224;6.000;2023-04-28T09:49:05;101084.88;;;12.77;100.00
10806;BME280;5455;53.224;6.000;2023-04-28T09:51:32;101081.09;;;12.85;100.00
10806;BME280;5455;53.224;6.000;2023-04-28T09:54:02;101088.44;;;12.55;100.00
10806;BME280;5455;53.224;6.000;2023-04-28T09:56:30;101089.25;;;12.36;100.00
10806;BME280;5455;53.224;6.000;2023-04-28T09:58:59;101079.66;;;12.30;100.00
10806;BME280;5455;53.224;6.000;2023-04-28T10:01:46;101089.25;;;12.17;100.00
10806;BME280;5455;53.224;6.000;2023-04-28T10:04:15;101076.09;;;11.91;100.00
10806;BME280;5455;53.224;6.000;2023-04-28T10:06:43;101084.38;;;11.91;100.00
10806;BME280;5455;53.224;6.000;2023-04-28T10:09:10;101075.25;;;11.72;100.00
10806;BME280;5455;53.224;6.000;2023-04-28T10:11:39;101070.41;;;11.84;100.00
10806;BME280;5455;53.224;6.000;2023-04-28T10:14:07;101074.22;;;11.95;100.00
10806;BME280;5455;53.224;6.000;2023-04-28T10:16:34;101082.28;;;11.85;100.00
10806;BME280;5455;53.224;6.000;2023-04-28T10:19:03;101085.81;;;11.50;100.00
10806;BME280;5455;53.224;6.000;2023-04-28T10:21:34;101082.63;;;11.33;100.00
10806;BME280;5455;53.224;6.000;2023-04-28T10:29:26;101075.00;;;10.95;100.00
10806;BME280;5455;53.224;6.000;2023-04-28T10:32:15;101076.94;;;10.94;100.00
10806;BME280;5455;53.224;6.000;2023-04-28T10:34:43;101069.66;;;10.86;100.00
10806;BME280;5455;53.224;6.000;2023-04-28T10:37:10;101069.03;;;10.77;100.00
10806;BME280;5455;53.224;6.000;2023-04-28T10:39:37;101063.94;;;10.79;100.00
10806;BME280;5455;53.224;6.000;2023-04-28T10:42:04;101056.31;;;10.88;100.00
10806;BME280;5455;53.224;6.000;2023-04-28T10:44:51;101052.91;;;11.11;100.00
10806;BME280;5455;53.224;6.000;2023-04-28T10:47:18;101047.28;;;11.38;100.00
10806;BME280;5455;53.224;6.000;2023-04-28T11:00:43;101044.88;;;11.21;100.00
10806;BME280;5455;53.224;6.000;2023-04-28T11:03:47;101042.31;;;11.13;100.00
10806;BME280;5455;53.224;6.000;2023-04-28T11:08:52;101038.41;;;11.14;100.00
10806;BME280;5455;53.224;6.000;2023-04-28T11:11:25;101043.91;;;11.29;100.00
10806;BME280;5455;53.224;6.000;2023-04-28T11:14:40;101046.38;;;11.34;100.00
10806;BME280;5455;53.224;6.000;2023-04-28T11:16:52;101040.66;;;11.43;100.00
10806;BME280;5455;53.224;6.000;2023-04-28T11:19:24;101037.94;;;11.27;100.00
10806;BME280;5455;53.224;6.000;2023-04-28T11:21:54;101035.25;;;11.31;100.00
10806;BME280;5455;53.224;6.000;2023-04-28T11:24:23;101027.25;;;11.26;100.00
10806;BME280;5455;53.224;6.000;2023-04-28T11:26:56;101025.81;;;11.32;100.00
10806;BME280;5455;53.224;6.000;2023-04-28T11:29:50;101020.31;;;11.51;100.00
10806;BME280;5455;53.224;6.000;2023-04-28T11:32:28;101025.59;;;11.56;100.00
10806;BME280;5455;53.224;6.000;2023-04-28T11:34:56;101024.91;;;11.43;100.00
10806;BME280;5455;53.224;6.000;2023-04-28T11:37:23;101013.25;;;11.34;100.00
10806;BME280;5455;53.224;6.000;2023-04-28T11:39:50;101016.69;;;11.47;100.00
10806;BME280;5455;53.224;6.000;2023-04-28T11:42:17;101016.78;;;11.50;100.00
10806;BME280;5455;53.224;6.000;2023-04-28T11:44:52;101019.97;;;11.52;100.00
10806;BME280;5455;53.224;6.000;2023-04-28T11:47:28;101007.31;;;11.51;100.00
10806;BME280;5455;53.224;6.000;2023-04-28T11:49:56;101010.84;;;11.68;100.00
10806;BME280;5455;53.224;6.000;2023-04-28T11:52:24;101011.88;;;11.79;100.00
10806;BME280;5455;53.224;6.000;2023-04-28T11:54:57;101008.81;;;11.84;100.00
10806;BME280;5455;53.224;6.000;2023-04-28T11:57:26;101008.03;;;12.02;100.00
10806;BME280;5455;53.224;6.000;2023-04-28T12:00:13;101009.44;;;12.35;100.00
10806;BME280;5455;53.224;6.000;2023-04-28T12:02:45;101004.53;;;12.47;100.00
10806;BME280;5455;53.224;6.000;2023-04-28T12:05:13;101004.63;;;12.74;100.00
10806;BME280;5455;53.224;6.000;2023-04-28T12:07:41;100997.94;;;12.78;100.00
10806;BME280;5455;53.224;6.000;2023-04-28T12:10:14;100994.09;;;12.83;100.00
10806;BME280;5455;53.224;6.000;2023-04-28T12:12:43;100991.09;;;12.95;100.00
10806;BME280;5455;53.224;6.000;2023-04-28T12:15:19;100988.84;;;13.27;100.00
10806;BME280;5455;53.224;6.000;2023-04-28T12:17:48;100986.28;;;13.41;100.00
10806;BME280;5455;53.224;6.000;2023-04-28T12:20:36;100981.44;;;13.64;100.00
10806;BME280;5455;53.224;6.000;2023-04-28T12:23:04;100983.94;;;13.72;100.00
10806;BME280;5455;53.224;6.000;2023-04-28T12:25:44;100972.88;;;14.09;100.00
10806;BME280;5455;53.224;6.000;2023-04-28T12:28:11;100982.50;;;14.56;100.00
10806;BME280;5455;53.224;6.000;2023-04-28T12:30:39;100982.19;;;14.64;100.00
10806;BME280;5455;53.224;6.000;2023-04-28T12:35:49;100973.97;;;14.75;100.00
10806;BME280;5455;53.224;6.000;2023-04-28T12:38:16;100977.00;;;14.22;100.00
10806;BME280;5455;53.224;6.000;2023-04-28T12:40:44;100982.69;;;13.70;100.00
10806;BME280;5455;53.224;6.000;2023-04-28T12:43:12;100970.84;;;13.40;100.00
10806;BME280;5455;53.224;6.000;2023-04-28T12:45:42;100969.59;;;13.34;100.00
10806;BME280;5455;53.224;6.000;2023-04-28T12:48:09;100975.25;;;13.44;100.00
10806;BME280;5455;53.224;6.000;2023-04-28T12:50:37;100969.06;;;13.24;100.00
10806;BME280;5455;53.224;6.000;2023-04-28T12:53:04;100977.25;;;13.17;100.00
10806;BME280;5455;53.224;6.000;2023-04-28T12:55:31;100972.16;;;12.97;100.00
10806;BME280;5455;53.224;6.000;2023-04-28T12:57:59;100978.09;;;12.73;100.00
10806;BME280;5455;53.224;6.000;2023-04-28T13:00:26;100977.00;;;12.54;100.00
10806;BME280;5455;53.224;6.000;2023-04-28T13:02:53;100983.81;;;12.38;100.00
10806;BME280;5455;53.224;6.000;2023-04-28T13:05:20;100974.34;;;12.39;100.00
10806;BME280;5455;53.224;6.000;2023-04-28T13:07:47;100977.31;;;12.49;100.00
10806;BME280;5455;53.224;6.000;2023-04-28T13:10:17;100974.34;;;12.39;100.00
10806;BME280;5455;53.224;6.000;2023-04-28T13:12:44;100972.63;;;12.53;100.00
10806;BME280;5455;53.224;6.000;2023-04-28T13:15:11;100968.69;;;12.77;100.00
10806;BME280;5455;53.224;6.000;2023-04-28T13:17:39;100977.03;;;12.81;100.00
10806;BME280;5455;53.224;6.000;2023-04-28T13:20:07;100971.44;;;12.77;100.00
10806;BME280;5455;53.224;6.000;2023-04-28T13:22:34;100965.88;;;12.74;100.00
10806;BME280;5455;53.224;6.000;2023-04-28T13:25:01;100969.38;;;12.70;100.00
10806;BME280;5455;53.224;6.000;2023-04-28T13:27:29;100965.34;;;12.64;100.00
10806;BME280;5455;53.224;6.000;2023-04-28T13:29:56;100977.13;;;12.61;100.00
10806;BME280;5455;53.224;6.000;2023-04-28T13:32:27;100990.44;;;12.56;100.00
10806;BME280;5455;53.224;6.000;2023-04-28T13:34:55;100989.59;;;12.52;100.00